Terminal Aerodrome Forecast
Issued by NWS

Home | Current Version | Previous Version | Text Only | Print | Product List | Glossary On
Versions: 1 2 3 4 5 6 7 8 9 10 11 12 13 14 15 16 17 18 19 20 21 22 23 24 25 26 27 28 29 30
000
FTAK31 PANC 100524
TAFADU
TAF
PADU 100524Z 1006/1106 11011G20KT P6SM VCSH BKN025 OVC035
      TEMPO 1006/1010 -RA BKN020 OVC025
     FM101200 02015G22KT P6SM -RA BKN015 OVC025
     FM102100 35018G28KT 6SM -RA BR BKN015 OVC025=

USA.gov is the U.S. government's official web portal to all federal, state and local government web resources and services.